Time;durP1;ratioP1;P1;durP2;ratioP2;P2;SDS_P1;SDS_P2;PMS_P1;PMS_P2;Temp;Humidity;BMP_temperature;BMP_pressure;BME280_temperature;BME280_humidity;BME280_pressure;Samples;Min_cycle;Max_cycle;Signal;HPM_P1;HPM_P2
2022/07/24 00:01:03;;;;;;;11.60;9.70;;;21.00;99.90;;;;;;5076562;28;20214;-51
2022/07/24 00:03:30;;;;;;;13.07;10.37;;;21.00;99.90;;;;;;5103157;27;20294;-54
2022/07/24 00:05:57;;;;;;;11.13;9.43;;;21.00;99.90;;;;;;5084402;27;20206;-53
2022/07/24 00:08:26;;;;;;;10.83;8.93;;;20.80;99.90;;;;;;5101572;28;20198;-60
2022/07/24 00:10:54;;;;;;;11.30;9.70;;;20.60;99.90;;;;;;5082548;27;20586;-54
2022/07/24 00:13:21;;;;;;;12.53;9.60;;;20.60;99.90;;;;;;5082363;28;20217;-54
2022/07/24 00:15:47;;;;;;;14.90;10.43;;;20.70;99.90;;;;;;5098891;27;20697;-54
2022/07/24 00:18:14;;;;;;;10.33;9.23;;;20.70;99.90;;;;;;5081579;28;20266;-54
2022/07/24 00:20:42;;;;;;;11.90;9.80;;;20.70;99.90;;;;;;5101312;27;20765;-54
2022/07/24 00:23:09;;;;;;;10.00;8.80;;;20.60;99.90;;;;;;5080970;27;20263;-54
2022/07/24 00:25:36;;;;;;;10.63;9.33;;;20.50;99.90;;;;;;5085071;28;20198;-54
2022/07/24 00:28:03;;;;;;;10.17;8.47;;;20.50;99.90;;;;;;5060942;28;20565;-54
2022/07/24 00:30:35;;;;;;;11.87;9.37;;;20.50;99.90;;;;;;5099353;27;20301;-55
2022/07/24 00:33:02;;;;;;;12.70;9.40;;;20.50;99.90;;;;;;5099868;27;20569;-55
2022/07/24 00:35:30;;;;;;;11.07;9.10;;;20.50;99.90;;;;;;5100654;27;20528;-53
2022/07/24 00:37:57;;;;;;;11.73;8.97;;;20.50;99.90;;;;;;5079689;28;22291;-53
2022/07/24 00:40:24;;;;;;;11.70;9.07;;;20.50;99.90;;;;;;5100896;27;21290;-54
2022/07/24 00:42:52;;;;;;;11.17;9.10;;;20.60;99.90;;;;;;5100607;27;20281;-54
2022/07/24 00:45:20;;;;;;;10.73;9.00;;;20.50;99.90;;;;;;5084770;28;20441;-54
2022/07/24 00:47:55;;;;;;;11.13;9.13;;;20.40;99.90;;;;;;5099705;27;20678;-53
2022/07/24 00:50:24;;;;;;;10.73;8.57;;;20.20;99.90;;;;;;5097624;27;20212;-53
2022/07/24 00:52:52;;;;;;;12.47;9.33;;;20.30;99.90;;;;;;5100579;27;20225;-55
2022/07/24 00:55:23;;;;;;;9.93;8.93;;;20.20;99.90;;;;;;5083624;28;20230;-55
2022/07/24 00:57:50;;;;;;;11.87;10.20;;;20.20;99.90;;;;;;5098892;27;20238;-54
2022/07/24 01:00:21;;;;;;;11.83;9.37;;;20.30;99.90;;;;;;5098740;27;20190;-54
2022/07/24 01:02:49;;;;;;;10.87;9.70;;;20.20;99.90;;;;;;5098880;28;20247;-54
2022/07/24 01:05:17;;;;;;;11.50;8.80;;;20.20;99.90;;;;;;5067003;27;20533;-53
2022/07/24 01:07:44;;;;;;;10.07;9.03;;;20.20;99.90;;;;;;5098345;27;20198;-54
2022/07/24 01:10:12;;;;;;;11.80;9.13;;;20.10;99.90;;;;;;5083953;27;20233;-52
2022/07/24 01:12:40;;;;;;;14.93;9.80;;;20.00;99.90;;;;;;5100861;27;20255;-53
2022/07/24 01:15:09;;;;;;;10.77;9.43;;;19.70;99.90;;;;;;5085032;28;20263;-54
2022/07/24 01:17:40;;;;;;;10.53;9.10;;;19.60;99.90;;;;;;5081054;28;20663;-54
2022/07/24 01:20:09;;;;;;;10.73;8.43;;;19.30;99.90;;;;;;5075517;28;20262;-54
2022/07/24 01:22:36;;;;;;;11.07;9.93;;;19.20;99.90;;;;;;5082459;28;20649;-55
2022/07/24 01:25:04;;;;;;;12.27;9.87;;;19.30;99.90;;;;;;5083791;27;20569;-54
2022/07/24 01:27:30;;;;;;;11.90;9.63;;;19.30;99.90;;;;;;5092361;28;20206;-54
2022/07/24 01:29:57;;;;;;;12.03;9.83;;;19.30;99.90;;;;;;5082806;28;20805;-53
2022/07/24 01:32:25;;;;;;;10.77;9.10;;;19.20;99.90;;;;;;5075353;28;20211;-53
2022/07/24 01:34:52;;;;;;;12.53;9.73;;;19.20;99.90;;;;;;5098259;28;20220;-53
2022/07/24 01:37:19;;;;;;;13.60;9.50;;;19.10;99.90;;;;;;5099228;28;20240;-52
2022/07/24 01:39:46;;;;;;;12.47;9.30;;;18.90;99.90;;;;;;5101150;28;20671;-55
2022/07/24 01:42:13;;;;;;;10.50;8.40;;;19.00;99.90;;;;;;5083956;28;20207;-54
2022/07/24 01:44:40;;;;;;;15.00;9.23;;;18.90;99.90;;;;;;5104487;28;20247;-53
2022/07/24 01:47:07;;;;;;;10.60;8.50;;;18.80;99.90;;;;;;5061391;28;20208;-54
2022/07/24 01:49:34;;;;;;;9.80;8.30;;;18.90;99.90;;;;;;5098167;28;20258;-54
2022/07/24 01:52:02;;;;;;;9.63;8.07;;;19.10;99.90;;;;;;5081212;28;20220;-54
2022/07/24 01:54:29;;;;;;;9.17;8.27;;;19.00;99.90;;;;;;5060323;28;20539;-53
2022/07/24 01:56:58;;;;;;;17.90;9.43;;;18.90;99.90;;;;;;5099126;28;20231;-53
2022/07/24 01:59:25;;;;;;;9.13;7.90;;;19.00;99.90;;;;;;5099919;28;20299;-53
2022/07/24 02:01:54;;;;;;;12.97;8.27;;;19.10;99.90;;;;;;5097596;28;20885;-53
2022/07/24 02:04:21;;;;;;;12.03;8.40;;;19.10;99.90;;;;;;5085593;28;20248;-54
2022/07/24 02:06:48;;;;;;;11.33;9.00;;;19.20;99.90;;;;;;5079729;28;20209;-53
2022/07/24 02:09:14;;;;;;;11.83;8.33;;;19.10;99.90;;;;;;5083959;28;20672;-52
2022/07/24 02:11:41;;;;;;;9.40;8.47;;;19.10;99.90;;;;;;5097426;28;20213;-53
2022/07/24 02:14:09;;;;;;;13.30;8.73;;;19.20;99.90;;;;;;5101673;28;20200;-54
2022/07/24 02:16:36;;;;;;;10.80;8.60;;;19.10;99.90;;;;;;5075489;28;20633;-53
2022/07/24 02:19:03;;;;;;;10.20;8.30;;;19.20;99.90;;;;;;5105290;27;20198;-55
2022/07/24 02:21:30;;;;;;;10.23;9.00;;;19.30;99.90;;;;;;5100091;27;20652;-54
2022/07/24 02:23:57;;;;;;;10.27;8.43;;;19.20;99.90;;;;;;5102439;27;20193;-54
2022/07/24 02:26:24;;;;;;;11.17;9.00;;;19.20;99.90;;;;;;5102368;27;20217;-53
2022/07/24 02:28:51;;;;;;;9.67;8.73;;;19.20;99.90;;;;;;5068799;27;20205;-54
2022/07/24 02:31:18;;;;;;;12.37;9.27;;;19.10;99.90;;;;;;5102332;27;20236;-54
2022/07/24 02:33:45;;;;;;;11.03;9.27;;;19.10;99.90;;;;;;5069035;28;20209;-53
2022/07/24 02:36:13;;;;;;;9.30;8.40;;;19.10;99.90;;;;;;5084682;27;20220;-53
2022/07/24 02:38:40;;;;;;;11.30;8.73;;;19.10;99.90;;;;;;5102410;27;20201;-53
2022/07/24 02:41:07;;;;;;;10.87;9.73;;;19.00;99.90;;;;;;5106763;27;20657;-52
2022/07/24 02:43:35;;;;;;;9.83;8.83;;;18.90;99.90;;;;;;5068691;28;20197;-53
2022/07/24 02:46:02;;;;;;;11.70;9.63;;;18.90;99.90;;;;;;5103224;27;20467;-53
2022/07/24 02:48:29;;;;;;;10.17;9.07;;;18.80;99.90;;;;;;5066500;27;20209;-53
2022/07/24 02:50:56;;;;;;;11.20;10.10;;;18.90;99.90;;;;;;5102826;28;20212;-54
2022/07/24 02:53:23;;;;;;;10.30;9.30;;;18.70;99.90;;;;;;5083672;28;20201;-54
2022/07/24 02:55:50;;;;;;;10.53;9.43;;;18.80;99.90;;;;;;5100379;27;20216;-53
2022/07/24 02:58:17;;;;;;;11.23;9.53;;;18.70;99.90;;;;;;5080829;28;20284;-53
2022/07/24 03:00:44;;;;;;;10.77;9.67;;;18.60;99.90;;;;;;5083704;27;20663;-52
2022/07/24 03:03:11;;;;;;;11.83;10.13;;;18.70;99.90;;;;;;5085736;28;20216;-54
2022/07/24 03:05:38;;;;;;;12.30;11.00;;;18.50;99.90;;;;;;5084817;27;20288;-52
2022/07/24 03:08:05;;;;;;;11.30;10.20;;;18.40;99.90;;;;;;5067984;27;20213;-53
2022/07/24 03:10:32;;;;;;;11.77;10.60;;;18.40;99.90;;;;;;5085064;28;20855;-54
2022/07/24 03:12:59;;;;;;;11.43;9.93;;;18.50;99.90;;;;;;5087660;28;20253;-54
2022/07/24 03:15:26;;;;;;;11.90;10.70;;;18.60;99.90;;;;;;5102441;27;20239;-53
2022/07/24 03:17:56;;;;;;;11.47;10.27;;;18.50;99.90;;;;;;5102110;27;20296;-52
2022/07/24 03:20:26;;;;;;;13.03;11.47;;;18.60;99.90;;;;;;5104332;27;20201;-54
2022/07/24 03:22:53;;;;;;;14.77;12.30;;;18.50;99.90;;;;;;5103607;27;20232;-52
2022/07/24 03:25:21;;;;;;;13.17;11.77;;;18.50;99.90;;;;;;5085527;28;20266;-54
2022/07/24 03:27:48;;;;;;;12.43;11.13;;;18.60;99.90;;;;;;5103435;27;20697;-53
2022/07/24 03:30:16;;;;;;;14.10;11.93;;;18.60;99.90;;;;;;5104773;27;20626;-52
2022/07/24 03:32:44;;;;;;;15.90;13.17;;;18.50;99.90;;;;;;5100242;27;20247;-53
2022/07/24 03:35:11;;;;;;;14.03;12.63;;;18.40;99.90;;;;;;5102699;27;20259;-54
2022/07/24 03:37:38;;;;;;;16.07;12.67;;;18.30;99.90;;;;;;5102849;27;20205;-53
2022/07/24 03:40:06;;;;;;;14.77;12.87;;;18.40;99.90;;;;;;5104795;28;20203;-53
2022/07/24 03:42:33;;;;;;;15.33;12.67;;;18.40;99.90;;;;;;5081795;28;20259;-53
2022/07/24 03:45:00;;;;;;;15.73;12.90;;;18.50;99.90;;;;;;5104296;27;20216;-54
2022/07/24 03:47:27;;;;;;;16.53;14.00;;;18.40;99.90;;;;;;5064734;28;20323;-55
2022/07/24 03:49:53;;;;;;;15.03;13.27;;;18.40;99.90;;;;;;5104662;27;20668;-53
2022/07/24 03:52:21;;;;;;;21.90;13.83;;;18.40;99.90;;;;;;5098802;27;20241;-54
2022/07/24 03:54:50;;;;;;;16.07;13.53;;;18.40;99.90;;;;;;5100932;27;20935;-52
2022/07/24 03:57:17;;;;;;;17.13;13.90;;;18.40;99.90;;;;;;5098413;27;20268;-54
2022/07/24 03:59:44;;;;;;;18.63;13.60;;;18.40;99.90;;;;;;5101768;27;20223;-54
2022/07/24 04:02:11;;;;;;;20.03;15.20;;;18.50;99.90;;;;;;5080752;28;20341;-54
2022/07/24 04:04:38;;;;;;;16.13;14.37;;;18.40;99.90;;;;;;5103433;27;20243;-53
2022/07/24 04:07:06;;;;;;;19.50;14.63;;;18.40;99.90;;;;;;5099649;27;20674;-53
2022/07/24 04:09:32;;;;;;;18.63;14.37;;;18.30;99.90;;;;;;5103286;27;20295;-54
2022/07/24 04:12:00;;;;;;;16.53;14.63;;;18.30;99.90;;;;;;5096432;27;20290;-52
2022/07/24 04:14:27;;;;;;;18.43;14.40;;;18.40;99.90;;;;;;5080952;27;20199;-56
2022/07/24 04:16:54;;;;;;;19.60;14.73;;;18.40;99.90;;;;;;5097093;27;20237;-56
2022/07/24 04:19:21;;;;;;;17.73;14.23;;;18.50;99.90;;;;;;5081145;28;20405;-53
2022/07/24 04:21:48;;;;;;;15.73;14.07;;;18.40;99.90;;;;;;5099135;27;20190;-54
2022/07/24 04:24:15;;;;;;;19.40;14.93;;;18.30;99.90;;;;;;5103173;27;20202;-52
2022/07/24 04:26:42;;;;;;;16.70;14.93;;;18.30;99.90;;;;;;5100429;27;20245;-54
2022/07/24 04:29:09;;;;;;;17.47;14.10;;;18.30;99.90;;;;;;5100638;28;20201;-53
2022/07/24 04:31:36;;;;;;;17.83;14.40;;;18.20;99.90;;;;;;5099614;27;20205;-54
2022/07/24 04:34:03;;;;;;;15.70;14.07;;;18.20;99.90;;;;;;5083703;27;20197;-52
2022/07/24 04:36:30;;;;;;;15.80;14.17;;;18.10;99.90;;;;;;5102578;27;20493;-55
2022/07/24 04:38:57;;;;;;;15.90;13.80;;;17.90;99.90;;;;;;5080904;27;20201;-54
2022/07/24 04:41:24;;;;;;;18.53;14.73;;;18.10;99.90;;;;;;5100390;28;20225;-54
2022/07/24 04:43:51;;;;;;;18.40;14.10;;;18.20;99.90;;;;;;5104182;27;20218;-56
2022/07/24 04:46:18;;;;;;;17.60;13.77;;;18.30;99.90;;;;;;5078466;27;20241;-53
2022/07/24 04:48:45;;;;;;;16.33;13.10;;;18.20;99.90;;;;;;5101013;27;20206;-54
2022/07/24 04:51:13;;;;;;;16.13;13.77;;;18.30;99.90;;;;;;5102288;27;20620;-53
2022/07/24 04:53:40;;;;;;;16.63;14.37;;;18.30;99.90;;;;;;5079296;28;20206;-54
2022/07/24 04:56:07;;;;;;;17.53;13.97;;;18.40;99.90;;;;;;5082330;28;20312;-52
2022/07/24 04:58:34;;;;;;;20.10;14.23;;;18.20;99.90;;;;;;5100101;28;20722;-52
2022/07/24 05:01:01;;;;;;;19.03;15.27;;;18.10;99.90;;;;;;5098269;27;20281;-54
2022/07/24 05:03:28;;;;;;;20.43;15.03;;;18.20;99.90;;;;;;5099597;27;20196;-52
2022/07/24 05:05:55;;;;;;;20.03;15.63;;;18.20;99.90;;;;;;5102328;28;20205;-54
2022/07/24 05:08:22;;;;;;;22.33;15.03;;;18.20;99.90;;;;;;5101164;27;20259;-54
2022/07/24 05:10:49;;;;;;;20.40;16.03;;;18.10;99.90;;;;;;5099474;27;20285;-54
2022/07/24 05:13:15;;;;;;;20.90;15.93;;;18.10;99.90;;;;;;5101850;27;20223;-53
2022/07/24 05:15:43;;;;;;;18.87;15.17;;;18.10;99.90;;;;;;5098916;27;20252;-52
2022/07/24 05:18:10;;;;;;;23.17;16.33;;;18.30;99.90;;;;;;5102393;27;20253;-54
2022/07/24 05:20:37;;;;;;;20.83;16.57;;;18.10;99.90;;;;;;5100083;27;20558;-56
2022/07/24 05:23:04;;;;;;;21.90;16.67;;;18.10;99.90;;;;;;5100759;28;20230;-54
2022/07/24 05:25:31;;;;;;;22.90;17.47;;;18.30;99.90;;;;;;5084451;27;20663;-54
2022/07/24 05:27:58;;;;;;;22.57;16.57;;;18.20;99.90;;;;;;5066634;28;20213;-54
2022/07/24 05:30:25;;;;;;;22.40;17.33;;;18.20;99.90;;;;;;5099441;27;20365;-51
2022/07/24 05:32:51;;;;;;;22.37;18.10;;;18.20;99.90;;;;;;5082500;28;20859;-52
2022/07/24 05:35:18;;;;;;;24.20;18.93;;;18.40;99.90;;;;;;5064798;28;20547;-52
2022/07/24 05:37:54;;;;;;;26.10;18.67;;;18.50;99.90;;;;;;5100011;27;20287;-54
2022/07/24 05:40:21;;;;;;;24.83;19.70;;;18.60;99.90;;;;;;5101243;27;20621;-53
2022/07/24 05:42:48;;;;;;;22.63;18.70;;;18.80;99.90;;;;;;5102095;28;20235;-52
2022/07/24 05:45:16;;;;;;;28.70;19.97;;;18.80;99.90;;;;;;5098500;28;20241;-54
2022/07/24 05:47:42;;;;;;;28.87;22.23;;;19.00;99.90;;;;;;5062495;28;20223;-54
2022/07/24 05:50:12;;;;;;;31.33;21.77;;;19.20;99.90;;;;;;5096981;28;20254;-53
2022/07/24 05:52:39;;;;;;;26.30;23.13;;;19.30;99.90;;;;;;5102165;27;20557;-53
2022/07/24 05:55:08;;;;;;;31.27;23.20;;;19.30;99.90;;;;;;5102686;27;20257;-56
2022/07/24 05:57:45;;;;;;;29.13;24.33;;;19.30;99.90;;;;;;5100527;27;20239;-54
2022/07/24 06:00:18;;;;;;;30.33;23.23;;;19.10;99.90;;;;;;5077865;28;20282;-53
2022/07/24 06:02:49;;;;;;;33.50;23.33;;;19.20;99.90;;;;;;5082604;27;20201;-54
2022/07/24 06:05:16;;;;;;;28.30;22.33;;;19.30;99.90;;;;;;5084578;28;20633;-54
2022/07/24 06:07:43;;;;;;;29.93;22.17;;;19.40;99.90;;;;;;5098093;27;20201;-55
2022/07/24 06:10:11;;;;;;;28.27;22.77;;;19.40;99.90;;;;;;5101984;27;20210;-53
2022/07/24 06:12:41;;;;;;;29.77;21.40;;;19.40;99.90;;;;;;5080249;27;20197;-54
2022/07/24 06:15:08;;;;;;;27.57;21.27;;;19.50;99.90;;;;;;5102463;27;20650;-54
2022/07/24 06:17:35;;;;;;;26.13;22.17;;;19.40;99.90;;;;;;5061851;27;20224;-53
2022/07/24 06:20:04;;;;;;;31.43;21.30;;;19.40;99.90;;;;;;5083458;28;20205;-54
2022/07/24 06:22:31;;;;;;;24.47;20.27;;;19.50;99.90;;;;;;5100856;27;20273;-53
2022/07/24 06:24:58;;;;;;;26.03;20.37;;;19.40;99.90;;;;;;5082102;28;20606;-54
2022/07/24 06:27:25;;;;;;;27.97;20.90;;;19.50;99.90;;;;;;5099420;27;20205;-54
2022/07/24 06:29:51;;;;;;;25.17;20.33;;;19.60;99.90;;;;;;5096903;27;20228;-56
2022/07/24 06:32:18;;;;;;;22.20;19.80;;;19.60;99.90;;;;;;5103886;27;20205;-52
2022/07/24 06:34:45;;;;;;;25.23;19.67;;;19.80;99.90;;;;;;5108457;28;20243;-52
2022/07/24 06:37:12;;;;;;;21.17;18.77;;;19.80;99.90;;;;;;5108397;28;20635;-53
2022/07/24 06:39:39;;;;;;;20.83;18.53;;;19.90;99.90;;;;;;5107081;27;20240;-53
2022/07/24 06:42:06;;;;;;;25.00;20.03;;;19.90;99.90;;;;;;5100386;27;21737;-53
2022/07/24 06:44:36;;;;;;;23.20;18.20;;;20.10;99.90;;;;;;5104121;27;20627;-54
2022/07/24 06:47:02;;;;;;;22.67;18.20;;;20.20;99.90;;;;;;5082690;28;20206;-55
2022/07/24 06:49:29;;;;;;;21.40;16.83;;;20.40;99.90;;;;;;5104473;27;20205;-54
2022/07/24 06:51:56;;;;;;;18.30;16.30;;;20.40;99.90;;;;;;5101723;27;20289;-54
2022/07/24 06:54:23;;;;;;;19.63;15.43;;;20.50;99.90;;;;;;5102846;27;20334;-54
2022/07/24 06:56:50;;;;;;;19.60;16.60;;;20.80;99.90;;;;;;5102736;27;20249;-55
2022/07/24 06:59:18;;;;;;;22.60;15.63;;;20.90;99.90;;;;;;5088184;27;20573;-53
2022/07/24 07:01:45;;;;;;;17.70;14.33;;;21.00;99.90;;;;;;5101058;27;20247;-52
2022/07/24 07:04:12;;;;;;;18.07;14.60;;;21.20;99.90;;;;;;5078965;28;20198;-54
2022/07/24 07:06:39;;;;;;;18.07;14.53;;;21.30;99.90;;;;;;4731862;27;9999687;-51
2022/07/24 07:09:10;;;;;;;17.07;14.00;;;21.40;99.90;;;;;;5097425;27;20206;-54
2022/07/24 07:11:37;;;;;;;17.80;13.43;;;21.50;99.90;;;;;;5101069;27;20672;-56
2022/07/24 07:14:04;;;;;;;14.97;12.93;;;21.60;99.90;;;;;;5102486;27;20768;-54
2022/07/24 07:16:31;;;;;;;17.07;12.43;;;21.90;99.90;;;;;;5081420;27;20222;-54
2022/07/24 07:18:58;;;;;;;17.77;12.53;;;22.00;99.90;;;;;;5087283;28;20202;-52
2022/07/24 07:21:25;;;;;;;16.60;12.23;;;22.20;99.90;;;;;;5067190;28;20206;-53
2022/07/24 07:23:52;;;;;;;13.47;10.73;;;22.20;99.90;;;;;;5084746;28;20199;-54
2022/07/24 07:26:19;;;;;;;11.87;10.17;;;22.40;99.90;;;;;;5081422;27;20240;-54
2022/07/24 07:28:46;;;;;;;11.10;9.20;;;22.50;99.90;;;;;;5082825;28;20210;-53
2022/07/24 07:31:13;;;;;;;14.77;9.37;;;22.60;99.90;;;;;;5101904;28;20217;-55
2022/07/24 07:33:40;;;;;;;12.23;9.70;;;22.80;99.90;;;;;;5082128;28;20202;-54
2022/07/24 07:36:08;;;;;;;12.13;8.80;;;22.80;99.90;;;;;;5081044;28;20255;-53
2022/07/24 07:38:37;;;;;;;9.20;7.50;;;22.80;99.90;;;;;;5098241;27;20225;-54
2022/07/24 07:41:06;;;;;;;8.30;6.37;;;22.80;99.90;;;;;;5101865;27;20203;-56
2022/07/24 07:43:37;;;;;;;8.20;6.17;;;23.00;99.90;;;;;;5096594;27;20338;-54
2022/07/24 07:46:05;;;;;;;8.47;6.20;;;23.20;99.90;;;;;;5096331;27;20364;-54
2022/07/24 07:48:32;;;;;;;9.57;5.73;;;23.30;99.90;;;;;;5102076;27;20196;-53
2022/07/24 07:50:59;;;;;;;6.47;5.77;;;23.30;99.90;;;;;;5099587;27;20267;-52
2022/07/24 07:53:26;;;;;;;7.40;5.67;;;23.10;99.90;;;;;;5096854;27;20274;-51
2022/07/24 07:55:53;;;;;;;5.70;4.50;;;23.10;99.90;;;;;;5078378;28;20233;-53
2022/07/24 07:58:20;;;;;;;6.33;4.20;;;23.70;99.90;;;;;;5081235;28;20282;-54
2022/07/24 08:00:47;;;;;;;6.33;4.50;;;23.70;99.90;;;;;;5099333;27;20744;-54
2022/07/24 08:03:14;;;;;;;4.63;3.77;;;24.10;99.90;;;;;;5083188;28;20571;-54
2022/07/24 08:05:48;;;;;;;6.10;3.50;;;24.30;99.90;;;;;;5082783;27;20197;-54
2022/07/24 08:08:15;;;;;;;6.07;4.63;;;24.30;99.90;;;;;;5101656;27;20337;-54
2022/07/24 08:10:43;;;;;;;4.70;4.20;;;23.90;99.90;;;;;;5104660;28;20209;-55
2022/07/24 08:13:11;;;;;;;4.87;3.87;;;24.10;99.90;;;;;;5084923;28;20198;-53
2022/07/24 08:15:38;;;;;;;3.90;3.50;;;24.20;99.90;;;;;;5095070;27;20941;-54
2022/07/24 08:18:05;;;;;;;5.40;4.30;;;24.50;99.90;;;;;;5100689;27;20549;-53
2022/07/24 08:20:32;;;;;;;3.83;3.30;;;24.60;99.90;;;;;;5062962;27;20792;-54
2022/07/24 08:23:00;;;;;;;5.57;3.93;;;24.60;99.90;;;;;;5099495;27;20191;-54
2022/07/24 08:25:27;;;;;;;3.93;3.20;;;24.50;99.90;;;;;;5103480;27;20285;-54
2022/07/24 08:27:54;;;;;;;4.37;2.93;;;24.50;99.90;;;;;;5100882;27;20300;-55
2022/07/24 08:30:22;;;;;;;3.77;3.20;;;24.40;99.90;;;;;;5103904;27;20205;-54
2022/07/24 08:32:49;;;;;;;4.30;3.30;;;24.30;99.90;;;;;;5098234;27;20229;-54
2022/07/24 08:35:16;;;;;;;4.43;3.67;;;24.50;99.90;;;;;;5080987;28;20246;-54
2022/07/24 08:37:43;;;;;;;4.47;3.07;;;24.30;99.90;;;;;;5098166;27;20214;-54
2022/07/24 08:40:12;;;;;;;3.77;3.40;;;24.50;99.90;;;;;;5099855;28;20241;-54
2022/07/24 08:42:40;;;;;;;5.13;3.60;;;24.60;99.90;;;;;;5093223;28;20251;-54
2022/07/24 08:45:07;;;;;;;4.43;3.77;;;24.60;99.90;;;;;;5097089;27;20222;-53
2022/07/24 08:47:36;;;;;;;4.17;3.77;;;25.00;99.90;;;;;;5095475;27;20210;-54
2022/07/24 08:50:04;;;;;;;4.97;3.80;;;25.00;99.90;;;;;;5101187;27;20255;-55
2022/07/24 08:52:35;;;;;;;3.70;3.40;;;25.00;99.90;;;;;;5080263;27;20237;-54
2022/07/24 08:55:10;;;;;;;4.40;3.53;;;24.90;99.90;;;;;;5082303;28;20241;-53
2022/07/24 08:57:37;;;;;;;3.33;3.00;;;25.30;99.90;;;;;;5097650;27;20241;-54
2022/07/24 09:00:07;;;;;;;5.80;3.63;;;25.30;99.90;;;;;;5083070;28;20305;-55
2022/07/24 09:02:37;;;;;;;4.40;3.87;;;25.60;99.90;;;;;;5081540;27;20213;-55
2022/07/24 09:05:06;;;;;;;4.37;3.70;;;25.50;99.90;;;;;;5097580;28;20762;-57
2022/07/24 09:07:33;;;;;;;4.70;3.20;;;25.60;99.90;;;;;;5096440;27;20212;-55
2022/07/24 09:10:10;;;;;;;3.57;3.03;;;25.50;99.90;;;;;;5083351;28;20210;-60
2022/07/24 09:12:45;;;;;;;3.37;3.07;;;26.00;99.90;;;;;;5100551;27;20586;-55
2022/07/24 09:15:18;;;;;;;4.40;3.20;;;25.90;99.90;;;;;;5081232;28;20208;-52
2022/07/24 09:17:56;;;;;;;3.47;3.10;;;26.10;99.90;;;;;;5095869;27;20805;-54
2022/07/24 09:20:28;;;;;;;3.00;2.73;;;26.20;99.90;;;;;;5099037;28;20201;-56
2022/07/24 09:22:58;;;;;;;2.90;2.70;;;26.20;99.90;;;;;;5091962;27;20209;-53
2022/07/24 09:25:34;;;;;;;3.47;2.77;;;26.10;99.90;;;;;;5081950;28;20641;-53
2022/07/24 09:28:02;;;;;;;4.70;3.00;;;26.10;99.90;;;;;;5096510;28;20653;-56
2022/07/24 09:30:35;;;;;;;3.13;2.83;;;26.40;99.90;;;;;;5092197;27;20223;-55
2022/07/24 09:33:06;;;;;;;4.87;3.57;;;26.60;99.90;;;;;;5095300;27;20870;-55
2022/07/24 09:35:39;;;;;;;4.30;3.30;;;26.40;99.90;;;;;;5098092;27;20279;-55
2022/07/24 09:38:15;;;;;;;3.57;2.90;;;26.80;99.90;;;;;;5076696;28;20258;-52
2022/07/24 09:40:44;;;;;;;3.15;2.53;;;26.70;99.90;;;;;;5096006;28;20629;-53
2022/07/24 09:43:15;;;;;;;2.92;2.58;;;26.80;99.90;;;;;;5083817;28;20205;-54
2022/07/24 09:46:05;;;;;;;3.27;2.97;;;27.10;99.90;;;;;;5089940;27;21461;-54
2022/07/24 09:48:38;;;;;;;5.50;2.60;;;26.80;99.90;;;;;;5098545;28;20205;-55
2022/07/24 09:51:13;;;;;;;3.23;2.60;;;26.80;99.90;;;;;;5097132;28;20712;-54
2022/07/24 09:53:41;;;;;;;2.43;2.23;;;26.60;99.90;;;;;;5100502;28;20287;-55
2022/07/24 09:56:14;;;;;;;3.27;2.27;;;26.90;99.90;;;;;;5077643;28;20198;-55
2022/07/24 09:58:53;;;;;;;3.33;2.20;;;27.10;99.90;;;;;;5095821;28;20319;-55
2022/07/24 10:01:23;;;;;;;2.43;2.07;;;27.30;99.90;;;;;;5077890;28;20201;-53
2022/07/24 10:03:52;;;;;;;5.10;2.43;;;27.30;99.90;;;;;;5099832;28;20556;-54
2022/07/24 10:06:21;;;;;;;2.57;2.23;;;27.20;99.90;;;;;;5098565;28;20201;-54
2022/07/24 10:08:50;;;;;;;2.53;2.30;;;26.80;99.90;;;;;;5096965;28;20201;-54
2022/07/24 10:11:19;;;;;;;3.10;2.50;;;27.00;99.90;;;;;;5075690;28;20205;-53
2022/07/24 10:13:46;;;;;;;2.30;2.07;;;27.00;99.90;;;;;;5081809;28;20307;-54
2022/07/24 10:16:16;;;;;;;2.57;2.37;;;26.90;99.90;;;;;;5079174;28;20211;-54
2022/07/24 10:18:46;;;;;;;3.50;2.40;;;27.20;99.90;;;;;;5098666;28;20700;-53
2022/07/24 10:21:20;;;;;;;2.57;2.30;;;27.40;99.90;;;;;;5077147;28;20229;-53
2022/07/24 10:24:03;;;;;;;3.27;2.20;;;27.30;99.90;;;;;;5079960;28;20198;-54
2022/07/24 10:26:37;;;;;;;3.80;3.40;;;27.00;99.90;;;;;;5096682;28;20224;-54
2022/07/24 10:29:12;;;;;;;4.80;3.23;;;27.20;99.90;;;;;;5097139;28;20210;-55
2022/07/24 10:31:48;;;;;;;4.87;2.47;;;26.70;99.90;;;;;;5096495;28;21639;-54
2022/07/24 10:34:38;;;;;;;2.53;1.83;;;26.90;99.90;;;;;;5077349;28;20751;-54
2022/07/24 10:37:23;;;;;;;4.00;2.30;;;26.90;99.90;;;;;;5098527;27;20237;-55
2022/07/24 10:40:23;;;;;;;2.23;1.90;;;27.20;99.90;;;;;;5098218;27;20278;-54
2022/07/24 10:43:08;;;;;;;2.57;2.17;;;26.90;99.90;;;;;;5060213;27;20225;-56
2022/07/24 10:45:40;;;;;;;3.93;2.10;;;26.80;99.90;;;;;;5103178;28;20196;-53
2022/07/24 10:48:19;;;;;;;2.20;2.00;;;27.00;99.90;;;;;;5100002;27;21872;-53
2022/07/24 10:51:08;;;;;;;4.27;2.10;;;27.20;99.90;;;;;;5083910;28;20213;-54
2022/07/24 10:53:37;;;;;;;2.63;2.10;;;27.50;99.90;;;;;;5099751;27;20201;-54
2022/07/24 10:56:30;;;;;;;4.20;2.13;;;27.30;99.90;;;;;;5083710;28;20205;-54
2022/07/24 10:59:09;;;;;;;2.47;2.27;;;27.30;99.90;;;;;;5087814;28;20378;-55
2022/07/24 11:01:48;;;;;;;2.90;2.23;;;27.40;99.90;;;;;;5087843;28;20292;-55
2022/07/24 11:04:22;;;;;;;2.70;1.87;;;27.80;99.90;;;;;;5087681;28;20202;-56
2022/07/24 11:06:50;;;;;;;2.60;1.90;;;28.00;99.90;;;;;;5067443;28;20714;-54
2022/07/24 11:09:20;;;;;;;3.05;2.25;;;28.20;99.90;;;;;;5091509;28;21828;-54
2022/07/24 11:11:53;;;;;;;3.50;2.00;;;28.50;99.90;;;;;;5090054;28;20263;-55
2022/07/24 11:14:25;;;;;;;2.95;1.90;;;28.00;99.90;;;;;;5077625;28;20542;-55
2022/07/24 11:16:53;;;;;;;3.95;1.85;;;28.20;99.90;;;;;;5073607;28;20731;-58
2022/07/24 11:19:20;;;;;;;2.35;1.90;;;29.40;99.90;;;;;;5045679;28;20195;-58
2022/07/24 11:21:47;;;;;;;2.63;1.60;;;29.60;99.90;;;;;;5090222;28;20198;-56
2022/07/24 11:24:17;;;;;;;2.40;1.60;;;29.50;99.90;;;;;;5094753;28;20230;-56
2022/07/24 11:27:07;;;;;;;2.70;1.95;;;29.90;99.90;;;;;;5060137;28;20772;-55
2022/07/24 11:29:38;;;;;;;2.50;1.80;;;30.40;99.90;;;;;;5079328;28;20199;-55
2022/07/24 11:32:08;;;;;;;1.80;1.70;;;30.40;99.90;;;;;;5089110;28;20244;-58
2022/07/24 11:34:50;;;;;;;2.30;1.73;;;30.50;99.90;;;;;;5094859;28;20207;-58
2022/07/24 11:37:17;;;;;;;2.13;1.70;;;30.40;99.90;;;;;;5062088;28;20294;-55
2022/07/24 11:39:45;;;;;;;1.95;1.80;;;30.70;99.90;;;;;;5096224;28;20210;-55
2022/07/24 11:42:16;;;;;;;1.98;1.77;;;30.60;99.90;;;;;;5093646;28;20204;-56
2022/07/24 11:44:50;;;;;;;1.70;1.60;;;30.80;99.90;;;;;;5079225;28;20649;-55
2022/07/24 11:47:23;;;;;;;2.33;2.13;;;31.40;99.90;;;;;;5047120;28;20665;-55
2022/07/24 11:49:54;;;;;;;2.35;2.15;;;30.50;99.90;;;;;;5072066;28;20245;-56
2022/07/24 11:52:24;;;;;;;2.15;1.98;;;30.30;99.90;;;;;;5090331;28;20206;-55
2022/07/24 11:54:56;;;;;;;3.50;1.85;;;31.30;99.90;;;;;;5085187;28;20329;-58
2022/07/24 11:57:28;;;;;;;3.25;1.63;;;30.40;99.90;;;;;;5094331;27;20248;-56
2022/07/24 12:00:24;;;;;;;1.85;1.55;;;30.50;99.90;;;;;;5103958;27;20206;-59
2022/07/24 12:03:01;;;;;;;1.70;1.60;;;30.70;99.90;;;;;;5104234;27;20225;-56
2022/07/24 12:05:33;;;;;;;2.80;1.85;;;31.30;99.90;;;;;;5101558;27;20839;-56
2022/07/24 12:08:02;;;;;;;2.42;1.90;;;31.60;99.90;;;;;;5104365;27;20613;-56
2022/07/24 12:10:30;;;;;;;2.40;1.58;;;32.70;99.90;;;;;;5083116;27;20201;-56
2022/07/24 12:12:57;;;;;;;1.55;1.45;;;32.60;99.90;;;;;;5066256;28;20226;-55
2022/07/24 12:15:26;;;;;;;1.63;1.50;;;32.40;99.90;;;;;;5081361;27;20576;-56
2022/07/24 12:18:05;;;;;;;3.13;1.67;;;32.00;99.90;;;;;;5107356;27;20278;-56
2022/07/24 12:20:40;;;;;;;2.25;1.80;;;32.10;99.90;;;;;;5108171;27;20194;-56
2022/07/24 12:23:14;;;;;;;1.73;1.60;;;32.10;99.90;;;;;;5106244;27;20563;-56
2022/07/24 12:25:43;;;;;;;1.80;1.58;;;31.60;99.90;;;;;;5107648;28;20202;-56
2022/07/24 12:28:15;;;;;;;2.58;1.50;;;31.00;99.90;;;;;;5107773;28;20217;-56
2022/07/24 12:30:44;;;;;;;2.00;1.80;;;31.40;99.90;;;;;;5107272;27;20653;-56
2022/07/24 12:33:11;;;;;;;2.05;1.73;;;32.00;99.90;;;;;;5105724;27;20233;-56
2022/07/24 12:36:00;;;;;;;2.63;2.30;;;31.50;99.90;;;;;;5107683;28;20734;-56
2022/07/24 12:38:39;;;;;;;2.28;2.08;;;31.50;99.90;;;;;;5102989;27;20645;-56
2022/07/24 12:41:08;;;;;;;2.20;1.73;;;31.50;99.90;;;;;;5103946;27;20218;-56
2022/07/24 12:43:58;;;;;;;3.17;1.90;;;31.50;99.90;;;;;;5087338;28;20641;-55
2022/07/24 12:46:39;;;;;;;2.00;1.80;;;32.50;99.90;;;;;;5101377;27;20194;-58
2022/07/24 12:49:09;;;;;;;2.45;2.25;;;31.70;99.90;;;;;;5106558;27;20526;-58